createdAt,value
2023-02-17T00:00:57.640Z,78.53
2023-02-17T00:03:26.567Z,73.80
2023-02-17T00:05:55.149Z,75.43
2023-02-17T00:08:23.576Z,73.50
2023-02-17T00:10:58.815Z,69.50
2023-02-17T00:13:27.458Z,65.03
2023-02-17T00:15:57.653Z,62.50
2023-02-17T00:18:26.321Z,62.97
2023-02-17T00:20:54.742Z,63.50
2023-02-17T00:23:23.146Z,62.17
2023-02-17T00:25:51.541Z,62.00
2023-02-17T00:28:19.955Z,60.30
2023-02-17T00:30:48.374Z,58.00
2023-02-17T00:33:18.268Z,59.07
2023-02-17T00:35:46.762Z,59.77
2023-02-17T00:38:15.162Z,60.50
2023-02-17T00:40:43.741Z,60.37
2023-02-17T00:43:14.039Z,58.70
2023-02-17T00:45:42.421Z,57.30
2023-02-17T00:48:10.889Z,54.00
2023-02-17T00:50:40.676Z,56.50
2023-02-17T00:53:09.052Z,57.20
2023-02-17T00:55:37.421Z,59.60
2023-02-17T00:58:05.860Z,58.93
2023-02-17T01:00:34.284Z,58.90
2023-02-17T01:03:02.694Z,57.73
2023-02-17T01:05:31.146Z,59.20
2023-02-17T01:08:00.940Z,59.93
2023-02-17T01:10:29.328Z,61.03
2023-02-17T01:12:57.749Z,60.20
2023-02-17T01:15:26.138Z,64.57
2023-02-17T01:17:54.902Z,62.93
2023-02-17T01:20:23.469Z,64.63
2023-02-17T01:22:51.875Z,66.70
2023-02-17T01:25:21.686Z,70.80
2023-02-17T01:27:50.485Z,73.63
2023-02-17T01:30:19.002Z,77.47
2023-02-17T01:32:47.526Z,89.23
2023-02-17T01:35:15.943Z,92.13
2023-02-17T01:37:44.477Z,100.87
2023-02-17T01:40:13.807Z,104.37
2023-02-17T01:42:43.900Z,101.97
2023-02-17T01:45:31.764Z,101.00
2023-02-17T01:48:02.269Z,104.73
2023-02-17T01:50:33.756Z,101.87
2023-02-17T01:53:03.023Z,101.53
2023-02-17T01:55:33.499Z,104.87
2023-02-17T01:58:04.448Z,107.07
2023-02-17T02:00:34.117Z,107.47
2023-02-17T02:03:03.436Z,109.40
2023-02-17T02:05:32.104Z,105.50
2023-02-17T02:08:00.522Z,108.23
2023-02-17T02:10:28.967Z,112.70
2023-02-17T02:12:57.338Z,115.50
2023-02-17T02:15:28.807Z,113.03
2023-02-17T02:18:05.069Z,110.50
2023-02-17T02:20:40.377Z,112.13
2023-02-17T02:23:32.522Z,110.30
2023-02-17T02:26:17.409Z,111.87
2023-02-17T02:28:48.929Z,115.87
2023-02-17T02:31:25.849Z,113.63
2023-02-17T02:33:58.598Z,118.97
2023-02-17T02:36:29.205Z,118.37
2023-02-17T02:39:00.256Z,121.07
2023-02-17T02:41:31.335Z,119.73
2023-02-17T02:43:59.793Z,115.67
2023-02-17T02:46:28.273Z,116.93
2023-02-17T02:48:58.049Z,116.47
2023-02-17T02:51:32.141Z,116.17
2023-02-17T02:54:21.285Z,114.10
2023-02-17T02:56:54.213Z,114.70
2023-02-17T02:59:27.987Z,112.77
2023-02-17T03:02:06.043Z,116.27
2023-02-17T03:04:38.677Z,115.57
2023-02-17T03:07:09.811Z,118.63
2023-02-17T03:09:38.492Z,119.23
2023-02-17T03:12:07.093Z,121.83
2023-02-17T03:14:38.307Z,121.23
2023-02-17T03:17:07.009Z,121.27
2023-02-17T03:19:37.110Z,123.87
2023-02-17T03:22:09.305Z,124.50
2023-02-17T03:24:37.792Z,119.87
2023-02-17T03:27:06.199Z,121.17
2023-02-17T03:29:34.655Z,116.77
2023-02-17T03:32:03.340Z,118.83
2023-02-17T03:34:31.777Z,120.23
2023-02-17T03:37:01.598Z,117.60
2023-02-17T03:39:30.267Z,115.53
2023-02-17T03:41:58.649Z,115.90
2023-02-17T03:44:27.053Z,116.60
2023-02-17T03:46:55.457Z,118.60
2023-02-17T03:49:23.833Z,122.13
2023-02-17T03:51:52.512Z,120.97
2023-02-17T03:54:22.267Z,119.07
2023-02-17T03:56:50.667Z,120.63
2023-02-17T03:59:19.094Z,121.27
2023-02-17T04:01:47.476Z,120.03
2023-02-17T04:04:16.718Z,120.20
2023-02-17T04:06:45.201Z,121.23
2023-02-17T04:09:13.601Z,121.07
2023-02-17T04:11:44.834Z,119.57
2023-02-17T04:14:13.274Z,121.07
2023-02-17T04:16:42.514Z,124.20
2023-02-17T04:19:10.974Z,121.30
2023-02-17T04:21:39.419Z,124.23
2023-02-17T04:24:08.194Z,128.30
2023-02-17T04:26:36.600Z,127.00
2023-02-17T04:29:07.008Z,127.73
2023-02-17T04:31:35.608Z,127.17
2023-02-17T04:34:04.122Z,124.50
2023-02-17T04:36:32.525Z,126.67
2023-02-17T04:39:00.888Z,122.83
2023-02-17T04:41:29.274Z,128.60
2023-02-17T04:43:57.704Z,130.00
2023-02-17T04:46:27.578Z,128.70
2023-02-17T04:48:55.992Z,125.83
2023-02-17T04:51:24.443Z,128.13
2023-02-17T04:53:52.828Z,126.90
2023-02-17T04:56:21.271Z,123.33
2023-02-17T04:58:49.815Z,123.53
2023-02-17T05:01:18.217Z,125.43
2023-02-17T05:03:48.006Z,124.53
2023-02-17T05:06:16.448Z,125.03
2023-02-17T05:08:44.849Z,122.67
2023-02-17T05:11:13.259Z,121.83
2023-02-17T05:13:41.682Z,123.53
2023-02-17T05:16:10.211Z,122.97
2023-02-17T05:18:39.216Z,119.37
2023-02-17T05:21:09.061Z,117.30
2023-02-17T05:23:41.228Z,116.93
2023-02-17T05:26:09.985Z,119.27
2023-02-17T05:28:38.844Z,121.20
2023-02-17T05:31:07.742Z,118.00
2023-02-17T05:33:36.257Z,114.97
2023-02-17T05:36:05.057Z,113.80
2023-02-17T05:38:35.028Z,115.93
2023-02-17T05:41:03.469Z,112.27
2023-02-17T05:43:32.096Z,112.63
2023-02-17T05:46:03.542Z,111.37
2023-02-17T05:48:32.184Z,112.13
2023-02-17T05:51:00.628Z,112.97
2023-02-17T05:53:29.167Z,112.23
2023-02-17T05:55:58.966Z,112.90
2023-02-17T05:58:27.424Z,110.47
2023-02-17T06:00:55.841Z,111.87
2023-02-17T06:03:24.543Z,111.17
2023-02-17T06:05:52.948Z,110.67
2023-02-17T06:08:21.319Z,112.60
2023-02-17T06:10:49.762Z,107.83
2023-02-17T06:13:19.542Z,112.37
2023-02-17T06:15:48.306Z,109.20
2023-02-17T06:18:16.755Z,107.27
2023-02-17T06:20:45.228Z,110.20
2023-02-17T06:23:13.647Z,105.80
2023-02-17T06:25:42.084Z,103.63
2023-02-17T06:28:10.600Z,104.93
2023-02-17T06:30:40.343Z,103.47
2023-02-17T06:33:08.734Z,104.07
2023-02-17T06:35:37.114Z,104.60
2023-02-17T06:38:05.616Z,105.93
2023-02-17T06:40:34.084Z,106.27
2023-02-17T06:43:02.535Z,108.40
2023-02-17T06:45:31.008Z,108.40
2023-02-17T06:48:00.840Z,106.60
2023-02-17T06:50:29.225Z,112.67
2023-02-17T06:52:57.611Z,112.70
2023-02-17T06:55:26.052Z,114.30
2023-02-17T06:57:54.436Z,112.10
2023-02-17T07:00:23.215Z,115.07
2023-02-17T07:02:51.820Z,113.90
2023-02-17T07:05:21.715Z,117.03
2023-02-17T07:07:50.094Z,115.47
2023-02-17T07:10:18.583Z,121.13
2023-02-17T07:12:46.974Z,121.83
2023-02-17T07:15:15.566Z,125.87
2023-02-17T07:17:43.976Z,127.37
2023-02-17T07:20:13.179Z,119.97
2023-02-17T07:22:42.959Z,117.57
2023-02-17T07:25:11.428Z,110.40
2023-02-17T07:27:40.050Z,107.60
2023-02-17T07:30:09.060Z,105.30
2023-02-17T07:32:37.533Z,107.07
2023-02-17T07:35:06.123Z,107.53
2023-02-17T07:37:34.556Z,109.57
2023-02-17T07:40:04.513Z,112.70
2023-02-17T07:42:32.907Z,118.03
2023-02-17T07:45:01.288Z,118.70
2023-02-17T07:47:29.695Z,113.77
2023-02-17T07:49:58.082Z,108.70
2023-02-17T07:52:26.462Z,106.07
2023-02-17T07:54:54.886Z,103.70
2023-02-17T07:57:24.678Z,105.30
2023-02-17T07:59:53.197Z,109.37
2023-02-17T08:02:21.954Z,104.73
2023-02-17T08:04:50.718Z,106.27
2023-02-17T08:07:19.143Z,110.33
2023-02-17T08:10:04.941Z,106.77
2023-02-17T08:13:07.025Z,107.93
2023-02-17T08:15:35.971Z,103.23
2023-02-17T08:18:06.509Z,108.73
2023-02-17T08:20:35.527Z,107.13
2023-02-17T08:23:04.713Z,104.97
2023-02-17T08:25:34.069Z,107.97
2023-02-17T08:28:04.649Z,112.67
2023-02-17T08:30:33.633Z,113.97
2023-02-17T08:33:02.060Z,117.93
2023-02-17T08:35:30.508Z,117.00
2023-02-17T08:37:58.915Z,101.40
2023-02-17T08:40:27.584Z,86.30
2023-02-17T08:42:56.021Z,106.57
2023-02-17T08:45:25.970Z,115.60
2023-02-17T08:47:54.442Z,122.83
2023-02-17T08:50:23.747Z,123.70
2023-02-17T08:52:52.204Z,127.57
2023-02-17T08:55:22.891Z,110.27
2023-02-17T08:57:51.391Z,85.77
2023-02-17T09:00:20.541Z,107.00
2023-02-17T09:02:50.289Z,113.47
2023-02-17T09:05:18.713Z,116.50
2023-02-17T09:07:47.163Z,121.87
2023-02-17T09:10:15.923Z,118.10
2023-02-17T09:12:44.392Z,111.50
2023-02-17T09:15:12.835Z,109.97
2023-02-17T09:17:42.262Z,107.67
2023-02-17T09:20:24.409Z,110.37
2023-02-17T09:22:53.224Z,93.87
2023-02-17T09:25:21.716Z,76.93
2023-02-17T09:27:50.449Z,93.87
2023-02-17T09:30:18.983Z,93.10
2023-02-17T09:32:47.391Z,90.63
2023-02-17T09:35:18.164Z,94.27
2023-02-17T09:37:46.710Z,99.00
2023-02-17T09:40:19.451Z,108.37
2023-02-17T09:42:47.995Z,107.27
2023-02-17T09:45:20.419Z,111.63
2023-02-17T09:47:50.133Z,109.73
2023-02-17T09:50:22.142Z,112.77
2023-02-17T09:52:54.984Z,110.03
2023-02-17T09:55:25.714Z,112.87
2023-02-17T09:57:57.092Z,107.07
2023-02-17T10:00:27.657Z,114.47
2023-02-17T10:02:59.696Z,110.83
2023-02-17T10:05:31.911Z,111.47
2023-02-17T10:08:03.394Z,111.77
2023-02-17T10:10:33.342Z,113.53
2023-02-17T10:13:03.382Z,94.90
2023-02-17T10:15:33.642Z,80.03
2023-02-17T10:18:08.503Z,72.83
2023-02-17T10:20:41.960Z,93.30
2023-02-17T10:23:15.174Z,106.63
2023-02-17T10:25:51.816Z,102.00
2023-02-17T10:28:23.732Z,101.70
2023-02-17T10:30:57.150Z,102.13
2023-02-17T10:33:30.356Z,106.33
2023-02-17T10:36:02.478Z,97.30
2023-02-17T10:38:34.953Z,95.33
2023-02-17T10:41:05.505Z,100.27
2023-02-17T10:43:34.826Z,94.40
2023-02-17T10:46:05.029Z,81.10
2023-02-17T10:48:36.621Z,84.93
2023-02-17T10:51:06.549Z,89.10
2023-02-17T10:53:36.123Z,88.83
2023-02-17T10:56:06.776Z,89.53
2023-02-17T10:58:37.182Z,83.80
2023-02-17T11:01:06.381Z,82.40
2023-02-17T11:03:36.941Z,74.83
2023-02-17T11:06:08.048Z,75.60
2023-02-17T11:08:39.003Z,74.20
2023-02-17T11:11:08.874Z,75.63
2023-02-17T11:13:39.299Z,75.33
2023-02-17T11:16:08.802Z,73.33
2023-02-17T11:18:40.993Z,62.77
2023-02-17T11:21:11.576Z,61.20
2023-02-17T11:23:49.063Z,66.87
2023-02-17T11:26:19.905Z,63.30
2023-02-17T11:28:48.287Z,63.13
2023-02-17T11:31:24.415Z,63.90
2023-02-17T11:33:54.136Z,61.30
2023-02-17T11:36:26.689Z,59.27
2023-02-17T11:38:55.178Z,61.30
2023-02-17T11:41:23.767Z,60.73
2023-02-17T11:43:57.114Z,57.53
2023-02-17T11:46:29.744Z,56.13
2023-02-17T11:49:02.928Z,58.07
2023-02-17T11:51:37.329Z,60.63
2023-02-17T11:54:12.869Z,59.03
2023-02-17T11:56:42.870Z,56.00
2023-02-17T11:59:21.111Z,55.73
2023-02-17T12:02:01.171Z,55.50
2023-02-17T12:04:31.020Z,57.13
2023-02-17T12:07:15.160Z,55.20
2023-02-17T12:09:48.425Z,56.77
2023-02-17T12:12:18.779Z,59.77
2023-02-17T12:14:54.642Z,61.20
2023-02-17T12:17:28.190Z,61.73
2023-02-17T12:19:57.883Z,64.43
2023-02-17T12:22:31.137Z,65.13
2023-02-17T12:25:15.066Z,66.27
2023-02-17T12:27:50.091Z,63.50
2023-02-17T12:30:23.805Z,69.90
2023-02-17T12:32:58.477Z,66.30
2023-02-17T12:35:28.380Z,69.93
2023-02-17T12:38:00.321Z,73.00
2023-02-17T12:40:35.928Z,75.10
2023-02-17T12:43:08.092Z,79.20
2023-02-17T12:45:39.317Z,85.17
2023-02-17T12:48:11.989Z,79.47
2023-02-17T12:50:41.600Z,78.90
2023-02-17T12:53:13.793Z,77.80
2023-02-17T12:55:48.338Z,81.30
2023-02-17T12:58:19.820Z,79.77
2023-02-17T13:00:50.407Z,71.53
2023-02-17T13:03:19.508Z,71.57
2023-02-17T13:05:50.393Z,73.30
2023-02-17T13:08:22.447Z,73.33
2023-02-17T13:11:01.207Z,74.90
2023-02-17T13:13:30.623Z,72.13
2023-02-17T13:16:07.689Z,73.77
2023-02-17T13:18:36.776Z,75.27
2023-02-17T13:21:17.270Z,80.37
2023-02-17T13:23:48.638Z,77.23
2023-02-17T13:26:25.672Z,76.20
2023-02-17T13:28:55.326Z,81.57
2023-02-17T13:31:25.034Z,79.50
2023-02-17T13:33:54.439Z,79.77
2023-02-17T13:36:24.905Z,75.30
2023-02-17T13:39:00.518Z,75.30
2023-02-17T13:41:30.064Z,76.27
2023-02-17T13:43:59.901Z,80.07
2023-02-17T13:46:28.717Z,78.23
2023-02-17T13:49:01.297Z,81.20
2023-02-17T13:51:31.704Z,76.77
2023-02-17T13:54:06.728Z,82.60
2023-02-17T13:56:35.187Z,80.07
2023-02-17T13:59:13.558Z,78.40
2023-02-17T14:01:43.994Z,77.07
2023-02-17T14:04:20.703Z,76.80
2023-02-17T14:06:50.292Z,81.40
2023-02-17T14:09:24.397Z,76.93
2023-02-17T14:11:53.216Z,76.37
2023-02-17T14:14:22.303Z,78.63
2023-02-17T14:17:01.668Z,79.97
2023-02-17T14:19:30.541Z,79.03
2023-02-17T14:22:00.318Z,76.80
2023-02-17T14:24:30.900Z,78.90
2023-02-17T14:27:01.333Z,78.57
2023-02-17T14:29:40.249Z,75.97
2023-02-17T14:32:09.590Z,85.27
2023-02-17T14:34:38.159Z,81.93
2023-02-17T14:37:10.540Z,81.93
2023-02-17T14:39:40.312Z,78.17
2023-02-17T14:42:08.756Z,76.47
2023-02-17T14:44:37.176Z,84.17
2023-02-17T14:47:05.589Z,80.70
2023-02-17T14:49:34.393Z,77.10
2023-02-17T14:52:03.818Z,72.97
2023-02-17T14:54:32.264Z,75.00
2023-02-17T14:57:05.653Z,85.40
2023-02-17T14:59:34.376Z,83.40
2023-02-17T15:02:02.809Z,74.70
2023-02-17T15:04:31.333Z,74.57
2023-02-17T15:06:59.752Z,75.53
2023-02-17T15:09:30.463Z,71.27
2023-02-17T15:11:59.341Z,79.70
2023-02-17T15:14:29.127Z,76.93
2023-02-17T15:16:57.515Z,73.03
2023-02-17T15:19:25.944Z,77.77
2023-02-17T15:21:54.653Z,81.13
2023-02-17T15:24:29.252Z,74.97
2023-02-17T15:26:59.006Z,72.70
2023-02-17T15:29:29.197Z,76.77
2023-02-17T15:31:58.538Z,79.23
2023-02-17T15:34:29.485Z,72.97
2023-02-17T15:36:57.949Z,69.53
2023-02-17T15:39:26.558Z,79.47
2023-02-17T15:41:56.415Z,76.47
2023-02-17T15:44:25.934Z,70.70
2023-02-17T15:46:56.815Z,71.87
2023-02-17T15:49:25.264Z,76.87
2023-02-17T15:51:53.641Z,72.73
2023-02-17T15:54:23.008Z,69.13
2023-02-17T15:56:52.596Z,71.63
2023-02-17T15:59:22.981Z,75.33
2023-02-17T16:01:51.818Z,72.50
2023-02-17T16:04:21.657Z,72.80
2023-02-17T16:06:50.245Z,74.13
2023-02-17T16:09:20.067Z,73.67
2023-02-17T16:11:49.937Z,76.77
2023-02-17T16:14:23.034Z,78.53
2023-02-17T16:16:51.568Z,74.47
2023-02-17T16:19:21.893Z,73.73
2023-02-17T16:21:50.287Z,75.80
2023-02-17T16:24:18.726Z,70.40
2023-02-17T16:26:47.622Z,69.63
2023-02-17T16:29:17.052Z,72.73
2023-02-17T16:31:46.033Z,73.93
2023-02-17T16:34:16.010Z,73.83
2023-02-17T16:36:46.150Z,72.73
2023-02-17T16:39:15.561Z,72.60
2023-02-17T16:41:43.947Z,73.80
2023-02-17T16:44:14.042Z,68.10
2023-02-17T16:46:47.492Z,70.53
2023-02-17T16:49:21.366Z,67.80
2023-02-17T16:51:51.728Z,67.43
2023-02-17T16:54:20.244Z,65.50
2023-02-17T16:56:50.022Z,69.90
2023-02-17T16:59:20.104Z,70.37
2023-02-17T17:01:49.035Z,68.00
2023-02-17T17:04:17.476Z,69.47
2023-02-17T17:06:47.157Z,66.57
2023-02-17T17:09:18.094Z,66.97
2023-02-17T17:11:46.826Z,68.90
2023-02-17T17:14:15.310Z,69.40
2023-02-17T17:16:44.529Z,67.33
2023-02-17T17:19:13.184Z,69.33
2023-02-17T17:21:41.809Z,66.03
2023-02-17T17:24:10.188Z,67.43
2023-02-17T17:26:43.919Z,67.47
2023-02-17T17:29:13.349Z,64.07
2023-02-17T17:31:41.972Z,62.57
2023-02-17T17:34:10.532Z,66.57
2023-02-17T17:36:40.438Z,65.10
2023-02-17T17:39:10.192Z,63.57
2023-02-17T17:41:40.126Z,63.73
2023-02-17T17:44:10.454Z,60.03
2023-02-17T17:46:39.350Z,59.73
2023-02-17T17:49:10.515Z,61.90
2023-02-17T17:51:39.596Z,61.77
2023-02-17T17:54:08.350Z,59.40
2023-02-17T17:56:38.819Z,58.10
2023-02-17T17:59:08.720Z,62.10
2023-02-17T18:01:37.198Z,56.00
2023-02-17T18:04:08.056Z,56.43
2023-02-17T18:06:39.902Z,54.10
2023-02-17T18:09:10.039Z,56.30
2023-02-17T18:11:39.072Z,56.67
2023-02-17T18:14:11.996Z,55.63
2023-02-17T18:16:41.897Z,55.43
2023-02-17T18:19:10.441Z,55.67
2023-02-17T18:21:39.854Z,55.97
2023-02-17T18:24:08.350Z,53.50
2023-02-17T18:26:37.001Z,55.47
2023-02-17T18:29:05.613Z,53.63
2023-02-17T18:31:35.738Z,52.90
2023-02-17T18:34:04.254Z,54.13
2023-02-17T18:36:32.887Z,56.50
2023-02-17T18:39:01.348Z,55.63
2023-02-17T18:41:30.413Z,54.33
2023-02-17T18:43:59.218Z,53.47
2023-02-17T18:46:27.935Z,51.97
2023-02-17T18:48:58.019Z,53.00
2023-02-17T18:51:27.730Z,53.23
2023-02-17T18:53:56.497Z,51.23
2023-02-17T18:56:25.913Z,53.70
2023-02-17T18:58:55.228Z,51.33
2023-02-17T19:01:24.966Z,51.93
2023-02-17T19:03:53.832Z,52.90
2023-02-17T19:06:24.788Z,52.47
2023-02-17T19:08:53.520Z,52.60
2023-02-17T19:11:23.590Z,53.10
2023-02-17T19:13:52.579Z,50.13
2023-02-17T19:16:21.916Z,53.90
2023-02-17T19:18:50.735Z,55.30
2023-02-17T19:21:19.190Z,52.77
2023-02-17T19:23:49.017Z,49.50
2023-02-17T19:26:17.776Z,50.80
2023-02-17T19:28:46.520Z,47.53
2023-02-17T19:31:16.103Z,46.90
2023-02-17T19:33:45.791Z,46.97
2023-02-17T19:36:15.603Z,44.80
2023-02-17T19:38:44.060Z,45.83
2023-02-17T19:41:14.361Z,47.93
2023-02-17T19:43:43.270Z,45.17
2023-02-17T19:46:13.110Z,43.97
2023-02-17T19:48:41.727Z,46.50
2023-02-17T19:51:10.839Z,44.70
2023-02-17T19:53:39.262Z,47.77
2023-02-17T19:56:11.380Z,44.57
2023-02-17T19:58:42.422Z,47.00
2023-02-17T20:01:11.873Z,46.20
2023-02-17T20:03:40.474Z,48.60
2023-02-17T20:06:10.330Z,50.03
2023-02-17T20:08:39.336Z,49.50
2023-02-17T20:11:08.108Z,49.73
2023-02-17T20:13:45.250Z,50.93
2023-02-17T20:16:16.380Z,51.40
2023-02-17T20:18:45.685Z,53.93
2023-02-17T20:21:15.402Z,50.97
2023-02-17T20:23:44.284Z,49.33
2023-02-17T20:26:13.444Z,50.60
2023-02-17T20:28:42.116Z,49.43
2023-02-17T20:31:11.153Z,52.33
2023-02-17T20:33:41.271Z,49.63
2023-02-17T20:36:11.201Z,49.13
2023-02-17T20:38:39.624Z,49.00
2023-02-17T20:41:08.804Z,49.33
2023-02-17T20:43:37.632Z,50.83
2023-02-17T20:46:06.137Z,48.83
2023-02-17T20:48:34.753Z,48.53
2023-02-17T20:51:05.784Z,49.57
2023-02-17T20:53:34.613Z,47.13
2023-02-17T20:56:03.093Z,47.47
2023-02-17T20:58:31.484Z,51.00
2023-02-17T21:01:00.914Z,49.00
2023-02-17T21:03:29.481Z,48.83
2023-02-17T21:05:57.887Z,47.07
2023-02-17T21:08:27.715Z,47.83
2023-02-17T21:10:56.187Z,49.53
2023-02-17T21:13:24.663Z,47.03
2023-02-17T21:15:53.030Z,47.40
2023-02-17T21:18:21.423Z,48.33
2023-02-17T21:20:49.841Z,48.30
2023-02-17T21:23:18.250Z,50.93
2023-02-17T21:25:48.154Z,50.43
2023-02-17T21:28:17.570Z,51.57
2023-02-17T21:30:47.640Z,50.23
2023-02-17T21:33:16.266Z,47.87
2023-02-17T21:35:44.646Z,48.10
2023-02-17T21:38:15.495Z,46.63
2023-02-17T21:40:43.936Z,46.93
2023-02-17T21:43:31.692Z,47.60
2023-02-17T21:46:00.235Z,46.63
2023-02-17T21:48:28.647Z,45.83
2023-02-17T21:51:05.063Z,46.13
2023-02-17T21:53:33.461Z,44.10
2023-02-17T21:56:02.282Z,43.07
2023-02-17T21:58:32.596Z,44.87
2023-02-17T22:01:01.164Z,44.30
2023-02-17T22:03:29.646Z,45.50
2023-02-17T22:05:58.767Z,47.73
2023-02-17T22:08:27.350Z,46.27
2023-02-17T22:10:55.768Z,45.20
2023-02-17T22:13:24.164Z,46.77
2023-02-17T22:15:59.581Z,47.77
2023-02-17T22:18:28.006Z,49.20
2023-02-17T22:20:56.395Z,48.53
2023-02-17T22:23:24.791Z,47.83
2023-02-17T22:25:53.241Z,49.03
2023-02-17T22:28:21.939Z,49.10
2023-02-17T22:30:52.778Z,50.70
2023-02-17T22:33:22.601Z,50.50
2023-02-17T22:35:58.215Z,50.00
2023-02-17T22:38:26.814Z,49.87
2023-02-17T22:40:55.377Z,47.93
2023-02-17T22:43:24.124Z,50.07
2023-02-17T22:45:59.265Z,48.97
2023-02-17T22:48:29.369Z,49.77
2023-02-17T22:50:57.995Z,49.60
2023-02-17T22:53:26.596Z,49.23
2023-02-17T22:55:55.007Z,49.63
2023-02-17T22:58:23.727Z,49.37
2023-02-17T23:00:52.447Z,51.83
2023-02-17T23:03:20.999Z,49.87
2023-02-17T23:05:50.781Z,52.50
2023-02-17T23:08:19.511Z,51.83
2023-02-17T23:10:47.893Z,51.63
2023-02-17T23:13:16.267Z,50.77
2023-02-17T23:15:44.697Z,52.50
2023-02-17T23:18:15.693Z,52.50
2023-02-17T23:20:44.940Z,54.87
2023-02-17T23:23:15.086Z,53.47
2023-02-17T23:25:44.511Z,53.87
2023-02-17T23:28:13.313Z,54.27
2023-02-17T23:30:43.534Z,52.27
2023-02-17T23:33:12.205Z,51.30
2023-02-17T23:35:41.330Z,51.87
2023-02-17T23:38:09.794Z,52.97
2023-02-17T23:40:40.045Z,53.27
2023-02-17T23:43:08.894Z,56.23
2023-02-17T23:45:39.104Z,55.97
2023-02-17T23:48:07.735Z,52.20
2023-02-17T23:50:36.127Z,54.23
2023-02-17T23:53:05.140Z,53.83
2023-02-17T23:55:33.577Z,53.57
2023-02-17T23:58:03.451Z,53.93
